GQNO

Nouakchott–Oumtounsy International Airport

Nouakchott, Mauritania
METAR GQNO 201100Z 09013KT 8000 NSC 20/M05 Q1021 NOSIG
Observed Flight Rules
Jan-20 @ 11:00 UTC (25 minutes ago) Marginal Visual Flight Rules
Wind Visibility Clouds
90° at 13 knots 7,998 meters
  • Clear skies
Temperatures Readings
Current 20°C / 68°F
Dewpoint -5°C / 23°F
Humidity 18%
Altimeter 30.15" Hg
Pressure 1020.92 hPa
Elevation 4
METAR GQNO 201100Z 09013KT 8000 NSC 20/M05 Q1021 NOSIG
Observed Flight Rules
Jan-20 @ 11:00 UTC
(25 minutes ago)
MVFR
Wind Visibility
90° at 13 knots 7,998 meters
Clouds
  • Clear skies
Temperature Dewpoint
20°C / 68°F -5°C / 23°F
Humidity Altimeter Pressure
18% 30.15" Hg 1020.92 hPa